Time;durP1;ratioP1;P1;durP2;ratioP2;P2;SDS_P1;SDS_P2;PMS_P1;PMS_P2;Temp;Humidity;BMP_temperature;BMP_pressure;BME280_temperature;BME280_humidity;BME280_pressure;Samples;Min_cycle;Max_cycle;Signal;HPM_P1;HPM_P2
2024/02/05 00:01:34;;;;;;;;;;;;;;;4.80;100.00;97311.00;5125024;28;20137;-71
2024/02/05 00:03:59;;;;;;;;;;;;;;;4.78;100.00;97313.75;5124877;28;19930;-71
2024/02/05 00:06:25;;;;;;;;;;;;;;;4.75;100.00;97308.88;5127270;28;19960;-71
2024/02/05 00:08:51;;;;;;;;;;;;;;;4.71;100.00;97298.97;5128722;28;19973;-71
2024/02/05 00:11:17;;;;;;;;;;;;;;;4.68;100.00;97308.69;5128701;28;19986;-71
2024/02/05 00:13:43;;;;;;;;;;;;;;;4.67;100.00;97308.84;5127962;28;19939;-71
2024/02/05 00:16:10;;;;;;;;;;;;;;;4.64;100.00;97310.00;5128650;28;19945;-74
2024/02/05 00:18:36;;;;;;;;;;;;;;;4.62;100.00;97311.94;5128580;28;20231;-74
2024/02/05 00:21:02;;;;;;;;;;;;;;;4.61;100.00;97315.50;5110361;28;20273;-74
2024/02/05 00:23:28;;;;;;;;;;;;;;;4.61;100.00;97317.28;5128507;28;19940;-74
2024/02/05 00:25:54;;;;;;;;;;;;;;;4.59;100.00;97312.22;5128462;28;19933;-74
2024/02/05 00:28:20;;;;;;;;;;;;;;;4.55;100.00;97318.72;5129236;28;20154;-74
2024/02/05 00:30:48;;;;;;;;;;;;;;;4.54;100.00;97329.28;5128371;28;20194;-74
2024/02/05 00:33:14;;;;;;;;;;;;;;;4.54;100.00;97326.69;5128561;28;19941;-74
2024/02/05 00:35:40;;;;;;;;;;;;;;;4.55;100.00;97325.69;5129129;28;20034;-71
2024/02/05 00:38:06;;;;;;;;;;;;;;;4.55;100.00;97318.72;5128190;28;19974;-71
2024/02/05 00:40:32;;;;;;;;;;;;;;;4.56;100.00;97322.97;5128019;28;20237;-71
2024/02/05 00:42:58;;;;;;;;;;;;;;;4.57;100.00;97327.16;5128659;28;19945;-71
2024/02/05 00:45:24;;;;;;;;;;;;;;;4.59;100.00;97324.41;5128031;28;19924;-71
2024/02/05 00:47:50;;;;;;;;;;;;;;;4.60;100.00;97326.88;5128073;28;20137;-71
2024/02/05 00:50:15;;;;;;;;;;;;;;;4.61;100.00;97314.69;5127934;28;19932;-71
2024/02/05 00:52:41;;;;;;;;;;;;;;;4.63;100.00;97312.75;5127772;28;19972;-71
2024/02/05 00:55:07;;;;;;;;;;;;;;;4.63;100.00;97299.75;5127212;28;19940;-68
2024/02/05 00:57:33;;;;;;;;;;;;;;;4.63;100.00;97297.16;5109700;28;20225;-68
2024/02/05 00:59:59;;;;;;;;;;;;;;;4.65;100.00;97300.41;5128275;28;20141;-68
2024/02/05 01:02:25;;;;;;;;;;;;;;;4.66;100.00;97309.81;5127702;28;20132;-68
2024/02/05 01:04:51;;;;;;;;;;;;;;;4.66;100.00;97302.84;5128251;28;19934;-68
2024/02/05 01:07:18;;;;;;;;;;;;;;;4.68;100.00;97303.50;5109672;28;19946;-68
2024/02/05 01:09:45;;;;;;;;;;;;;;;4.70;100.00;97307.72;5127649;28;20270;-74
2024/02/05 01:12:10;;;;;;;;;;;;;;;4.72;100.00;97310.97;5127585;28;19935;-71
2024/02/05 01:14:37;;;;;;;;;;;;;;;4.72;100.00;97316.97;5128307;28;20061;-71
2024/02/05 01:17:03;;;;;;;;;;;;;;;4.72;100.00;97324.78;5126877;28;19940;-71
2024/02/05 01:19:29;;;;;;;;;;;;;;;4.74;100.00;97330.63;5127411;28;19935;-71
2024/02/05 01:21:55;;;;;;;;;;;;;;;4.75;100.00;97334.84;5127833;28;19958;-71
2024/02/05 01:24:21;;;;;;;;;;;;;;;4.77;100.00;97338.13;5127317;28;19934;-71
2024/02/05 01:26:47;;;;;;;;;;;;;;;4.80;100.00;97335.19;5127276;28;19997;-71
2024/02/05 01:29:13;;;;;;;;;;;;;;;4.82;100.00;97337.63;5127335;28;20003;-72
2024/02/05 01:31:42;;;;;;;;;;;;;;;4.84;100.00;97335.69;5108960;28;19992;-71
2024/02/05 01:34:08;;;;;;;;;;;;;;;4.85;100.00;97332.09;5109808;28;20004;-71
2024/02/05 01:36:34;;;;;;;;;;;;;;;4.88;100.00;97334.41;5127562;28;19934;-71
2024/02/05 01:38:59;;;;;;;;;;;;;;;4.89;100.00;97333.41;5128146;28;19936;-71
2024/02/05 01:41:25;;;;;;;;;;;;;;;4.90;100.00;97334.25;5109112;28;19946;-71
2024/02/05 01:43:51;;;;;;;;;;;;;;;4.91;100.00;97335.84;5126944;28;20278;-71
2024/02/05 01:46:19;;;;;;;;;;;;;;;4.93;100.00;97333.91;5126899;28;19931;-73
2024/02/05 01:48:46;;;;;;;;;;;;;;;4.94;100.00;97332.94;5109403;28;19933;-74
2024/02/05 01:51:13;;;;;;;;;;;;;;;4.95;100.00;97343.16;5126787;28;19943;-68
2024/02/05 01:53:39;;;;;;;;;;;;;;;4.97;100.00;97348.22;5126588;28;19960;-68
2024/02/05 01:56:06;;;;;;;;;;;;;;;4.95;100.00;97337.97;5127250;28;19939;-67
2024/02/05 01:58:32;;;;;;;;;;;;;;;4.91;100.00;97341.06;5126686;28;19940;-68
2024/02/05 02:00:58;;;;;;;;;;;;;;;4.90;100.00;97345.44;5108468;28;19968;-68
2024/02/05 02:03:26;;;;;;;;;;;;;;;4.87;100.00;97341.38;5126601;28;20297;-68
2024/02/05 02:05:52;;;;;;;;;;;;;;;4.86;100.00;97342.34;5126558;28;19935;-71
2024/02/05 02:08:18;;;;;;;;;;;;;;;4.86;100.00;97344.13;5126448;28;19954;-71
2024/02/05 02:10:46;;;;;;;;;;;;;;;4.83;100.00;97344.44;5126489;28;20108;-71
2024/02/05 02:13:12;;;;;;;;;;;;;;;4.85;100.00;97347.69;5108977;28;19938;-71
2024/02/05 02:15:38;;;;;;;;;;;;;;;4.86;100.00;97344.94;5126358;28;19940;-71
2024/02/05 02:18:07;;;;;;;;;;;;;;;4.88;100.00;97344.78;5108816;28;19985;-71
2024/02/05 02:20:38;;;;;;;;;;;;;;;4.94;100.00;97341.56;5126100;28;20345;-71
2024/02/05 02:23:07;;;;;;;;;;;;;;;5.00;100.00;97345.31;5126241;28;19939;-68
2024/02/05 02:25:33;;;;;;;;;;;;;;;5.07;100.00;97341.88;5126129;28;19927;-73
2024/02/05 02:27:58;;;;;;;;;;;;;;;5.13;100.00;97337.03;5125188;28;20121;-71
2024/02/05 02:30:24;;;;;;;;;;;;;;;5.19;100.00;97342.41;5126011;28;19956;-71
2024/02/05 02:33:16;;;;;;;;;;;;;;;5.22;100.00;97342.06;5125990;28;19942;-71
2024/02/05 02:35:45;;;;;;;;;;;;;;;5.25;100.00;97349.56;5121177;28;19933;-71
2024/02/05 02:38:19;;;;;;;;;;;;;;;5.28;100.00;97354.44;5125872;28;19934;-71
2024/02/05 02:40:49;;;;;;;;;;;;;;;5.29;100.00;97352.63;5126349;28;19949;-71
2024/02/05 02:43:17;;;;;;;;;;;;;;;5.31;100.00;97353.28;5125742;28;19935;-75
2024/02/05 02:45:45;;;;;;;;;;;;;;;5.31;100.00;97358.47;5125774;28;19935;-73
2024/02/05 02:48:11;;;;;;;;;;;;;;;5.31;100.00;97361.09;5125661;28;20250;-73
2024/02/05 02:50:37;;;;;;;;;;;;;;;5.32;100.00;97365.31;5126064;28;19927;-73
2024/02/05 02:53:03;;;;;;;;;;;;;;;5.32;100.00;97365.31;5125909;28;19968;-73
2024/02/05 02:55:29;;;;;;;;;;;;;;;5.33;100.00;97373.94;5125526;28;20032;-73
2024/02/05 02:57:55;;;;;;;;;;;;;;;5.35;100.00;97380.59;5125544;28;19932;-73
2024/02/05 03:00:20;;;;;;;;;;;;;;;5.37;100.00;97375.25;5125357;28;20106;-73
2024/02/05 03:02:46;;;;;;;;;;;;;;;5.38;100.00;97388.09;5125436;28;19943;-71
2024/02/05 03:05:12;;;;;;;;;;;;;;;5.39;100.00;97376.69;5107251;28;19974;-71
2024/02/05 03:07:38;;;;;;;;;;;;;;;5.39;100.00;97376.69;5125309;28;19942;-71
2024/02/05 03:10:05;;;;;;;;;;;;;;;5.38;100.00;97367.28;5126114;28;19932;-71
2024/02/05 03:12:32;;;;;;;;;;;;;;;5.38;100.00;97369.88;5125772;28;19943;-71
2024/02/05 03:14:59;;;;;;;;;;;;;;;5.38;100.00;97363.88;5125714;28;19962;-71
2024/02/05 03:17:24;;;;;;;;;;;;;;;5.40;100.00;97369.72;5125934;28;19947;-71
2024/02/05 03:19:50;;;;;;;;;;;;;;;5.39;100.00;97379.31;5107818;28;19943;-73
2024/02/05 03:22:16;;;;;;;;;;;;;;;5.38;100.00;97379.47;5124982;28;19962;-72
2024/02/05 03:24:42;;;;;;;;;;;;;;;5.35;100.00;97378.00;5125072;28;19935;-71
2024/02/05 03:27:09;;;;;;;;;;;;;;;5.35;100.00;97375.41;5125054;28;20080;-71
2024/02/05 03:29:35;;;;;;;;;;;;;;;5.31;100.00;97374.09;5106681;28;19936;-71
2024/02/05 03:32:01;;;;;;;;;;;;;;;5.30;100.00;97375.06;5125218;28;19942;-71
2024/02/05 03:34:27;;;;;;;;;;;;;;;5.31;100.00;97379.28;5124856;28;19937;-71
2024/02/05 03:36:54;;;;;;;;;;;;;;;5.31;100.00;97386.28;5124860;28;20002;-73
2024/02/05 03:39:19;;;;;;;;;;;;;;;5.31;100.00;97379.28;5124638;28;20128;-73
2024/02/05 03:41:45;;;;;;;;;;;;;;;5.31;100.00;97386.28;5124710;28;19960;-74
2024/02/05 03:44:11;;;;;;;;;;;;;;;5.32;100.00;97387.94;5106781;28;19949;-74
2024/02/05 03:46:38;;;;;;;;;;;;;;;5.35;100.00;97385.00;5107509;28;19943;-74
2024/02/05 03:49:04;;;;;;;;;;;;;;;5.31;100.00;97384.50;5124823;28;19933;-74
2024/02/05 03:51:29;;;;;;;;;;;;;;;5.29;100.00;97381.25;5124669;28;19941;-74
2024/02/05 03:53:55;;;;;;;;;;;;;;;5.28;100.00;97385.63;5124639;28;20038;-74
2024/02/05 03:56:21;;;;;;;;;;;;;;;5.27;100.00;97378.81;5125187;28;19950;-74
2024/02/05 03:58:50;;;;;;;;;;;;;;;5.26;100.00;97386.78;5106583;28;19936;-71
2024/02/05 04:01:16;;;;;;;;;;;;;;;5.24;100.00;97388.72;5089626;28;19952;-72
2024/02/05 04:03:42;;;;;;;;;;;;;;;5.24;100.00;97381.72;5124599;28;20111;-71
2024/02/05 04:06:07;;;;;;;;;;;;;;;5.24;100.00;97384.31;5125116;28;19929;-71
2024/02/05 04:08:33;;;;;;;;;;;;;;;5.21;100.00;97387.25;5125011;28;19945;-71
2024/02/05 04:10:59;;;;;;;;;;;;;;;5.18;100.00;97374.56;5124555;28;19940;-71
2024/02/05 04:13:25;;;;;;;;;;;;;;;5.18;100.00;97376.34;5107158;28;20098;-72
2024/02/05 04:15:51;;;;;;;;;;;;;;;5.17;100.00;97385.16;5124586;28;20244;-68
2024/02/05 04:18:17;;;;;;;;;;;;;;;5.19;100.00;97378.00;5124429;28;19940;-71
2024/02/05 04:20:43;;;;;;;;;;;;;;;5.21;100.00;97384.66;5124894;28;19967;-71
2024/02/05 04:23:09;;;;;;;;;;;;;;;5.23;100.00;97380.13;5124478;28;20165;-71
2024/02/05 04:25:35;;;;;;;;;;;;;;;5.24;100.00;97381.72;5125177;28;19943;-71
2024/02/05 04:28:02;;;;;;;;;;;;;;;5.24;100.00;97380.91;5124346;28;19938;-71
2024/02/05 04:30:29;;;;;;;;;;;;;;;5.23;100.00;97377.50;5124376;28;19944;-71
2024/02/05 04:32:58;;;;;;;;;;;;;;;5.24;100.00;97373.13;5124880;28;19942;-71
2024/02/05 04:35:24;;;;;;;;;;;;;;;5.23;100.00;97377.50;5106841;28;19935;-73
2024/02/05 04:37:50;;;;;;;;;;;;;;;5.23;100.00;97381.91;5124307;28;19984;-73
2024/02/05 04:40:15;;;;;;;;;;;;;;;5.25;100.00;97385.16;5106663;28;19947;-73
2024/02/05 04:42:41;;;;;;;;;;;;;;;5.24;100.00;97379.13;5124151;28;19950;-73
2024/02/05 04:45:07;;;;;;;;;;;;;;;5.26;100.00;97371.97;5124226;28;20005;-73
2024/02/05 04:47:33;;;;;;;;;;;;;;;5.29;100.00;97376.03;5124464;28;19940;-73
2024/02/05 04:49:59;;;;;;;;;;;;;;;5.29;100.00;97371.66;5124190;28;20240;-73
2024/02/05 04:52:25;;;;;;;;;;;;;;;5.31;100.00;97373.28;5126610;28;21397;-71
2024/02/05 04:54:51;;;;;;;;;;;;;;;5.30;100.00;97375.06;5110440;28;19965;-68
2024/02/05 04:57:18;;;;;;;;;;;;;;;5.31;100.00;97365.47;5128125;28;19943;-69
2024/02/05 04:59:43;;;;;;;;;;;;;;;5.29;100.00;97371.66;5127848;28;19945;-68
2024/02/05 05:02:09;;;;;;;;;;;;;;;5.30;100.00;97362.06;5127700;28;19957;-68
2024/02/05 05:04:36;;;;;;;;;;;;;;;5.31;100.00;97368.09;5127759;28;19934;-68
2024/02/05 05:07:02;;;;;;;;;;;;;;;5.29;100.00;97366.47;5127672;28;19936;-68
2024/02/05 05:09:28;;;;;;;;;;;;;;;5.31;100.00;97371.50;5128083;28;19957;-71
2024/02/05 05:11:54;;;;;;;;;;;;;;;5.32;100.00;97367.13;5127647;28;19963;-67
2024/02/05 05:14:20;;;;;;;;;;;;;;;5.31;100.00;97376.69;5128093;28;20009;-68
2024/02/05 05:16:46;;;;;;;;;;;;;;;5.29;100.00;97379.47;5128077;28;19936;-68
2024/02/05 05:19:11;;;;;;;;;;;;;;;5.32;100.00;97374.94;5127462;28;19937;-68
2024/02/05 05:21:37;;;;;;;;;;;;;;;5.33;100.00;97382.53;5128096;28;19950;-68
2024/02/05 05:24:03;;;;;;;;;;;;;;;5.35;100.00;97385.81;5127399;28;19932;-68
2024/02/05 05:26:29;;;;;;;;;;;;;;;5.38;100.00;97390.69;5127826;28;19956;-68
2024/02/05 05:28:55;;;;;;;;;;;;;;;5.41;100.00;97374.75;5127860;28;20195;-75
2024/02/05 05:31:21;;;;;;;;;;;;;;;5.43;100.00;97382.41;5127078;28;19935;-71
2024/02/05 05:33:47;;;;;;;;;;;;;;;5.44;100.00;97387.44;5127186;28;19934;-71
2024/02/05 05:36:13;;;;;;;;;;;;;;;5.42;100.00;97389.41;5109646;28;19944;-71
2024/02/05 05:38:39;;;;;;;;;;;;;;;5.43;100.00;97382.41;5127040;28;19944;-71
2024/02/05 05:41:04;;;;;;;;;;;;;;;5.40;100.00;97378.34;5127584;28;19934;-71
2024/02/05 05:43:31;;;;;;;;;;;;;;;5.41;100.00;97379.94;5126857;28;20105;-71
2024/02/05 05:45:57;;;;;;;;;;;;;;;5.43;100.00;97372.00;5126933;28;19949;-71
2024/02/05 05:48:23;;;;;;;;;;;;;;;5.43;100.00;97367.59;5127724;28;19925;-74
2024/02/05 05:50:49;;;;;;;;;;;;;;;5.43;100.00;97380.59;5126918;28;19942;-74
2024/02/05 05:53:15;;;;;;;;;;;;;;;5.44;100.00;97386.63;5108612;28;19971;-74
2024/02/05 05:55:47;;;;;;;;;;;;;;;5.45;100.00;97377.84;5126753;28;19937;-74
2024/02/05 05:58:13;;;;;;;;;;;;;;;5.47;100.00;97375.91;5126709;28;19934;-74
2024/02/05 06:00:39;;;;;;;;;;;;;;;5.46;100.00;97369.88;5127191;28;19941;-74
2024/02/05 06:03:06;;;;;;;;;;;;;;;5.46;100.00;97362.09;5126459;28;19950;-74
2024/02/05 06:05:31;;;;;;;;;;;;;;;5.45;100.00;97370.03;5126550;28;19935;-74
2024/02/05 06:07:57;;;;;;;;;;;;;;;5.46;100.00;97361.28;5127001;28;19950;-68
2024/02/05 06:10:23;;;;;;;;;;;;;;;5.45;100.00;97355.25;5125497;28;19947;-69
2024/02/05 06:12:49;;;;;;;;;;;;;;;5.45;100.00;97363.03;5126353;28;19936;-68
2024/02/05 06:15:15;;;;;;;;;;;;;;;5.45;100.00;97357.84;5126910;28;20032;-68
2024/02/05 06:17:41;;;;;;;;;;;;;;;5.43;100.00;97362.38;5126307;28;19933;-68
2024/02/05 06:20:07;;;;;;;;;;;;;;;5.45;100.00;97354.44;5126287;28;20237;-68
2024/02/05 06:22:34;;;;;;;;;;;;;;;5.43;100.00;97358.97;5126140;28;19960;-73
2024/02/05 06:25:00;;;;;;;;;;;;;;;5.44;100.00;97356.22;5126178;28;19937;-71
2024/02/05 06:27:26;;;;;;;;;;;;;;;5.45;100.00;97360.44;5126060;28;19935;-71
2024/02/05 06:29:52;;;;;;;;;;;;;;;5.45;100.00;97357.03;5126871;28;19939;-71
2024/02/05 06:32:18;;;;;;;;;;;;;;;5.44;100.00;97356.22;5126019;28;19936;-71
2024/02/05 06:34:44;;;;;;;;;;;;;;;5.43;100.00;97349.38;5125978;28;19935;-71
2024/02/05 06:37:12;;;;;;;;;;;;;;;5.45;100.00;97352.63;5126199;28;19926;-71
2024/02/05 06:39:39;;;;;;;;;;;;;;;5.44;100.00;97352.81;5125866;28;19935;-71
2024/02/05 06:42:04;;;;;;;;;;;;;;;5.43;100.00;97352.00;5126308;28;19957;-71
2024/02/05 06:44:30;;;;;;;;;;;;;;;5.43;100.00;97354.59;5125795;28;19942;-73
2024/02/05 06:46:56;;;;;;;;;;;;;;;5.43;100.00;97352.00;5125663;28;19938;-73
2024/02/05 06:49:22;;;;;;;;;;;;;;;5.42;100.00;97355.56;5126168;28;19934;-74
2024/02/05 06:51:48;;;;;;;;;;;;;;;5.40;100.00;97360.13;5126148;28;19941;-73
2024/02/05 06:54:14;;;;;;;;;;;;;;;5.41;100.00;97355.72;5125353;28;19969;-74
2024/02/05 06:56:39;;;;;;;;;;;;;;;5.38;100.00;97351.69;5125536;28;19949;-73
2024/02/05 06:59:05;;;;;;;;;;;;;;;5.41;100.00;97359.13;5125741;28;19942;-71
2024/02/05 07:01:31;;;;;;;;;;;;;;;5.42;100.00;97354.78;5125615;28;19951;-71
2024/02/05 07:03:57;;;;;;;;;;;;;;;5.42;100.00;97360.78;5125447;28;19936;-74
2024/02/05 07:06:25;;;;;;;;;;;;;;;5.45;100.00;97359.63;5124830;28;20209;-74
2024/02/05 07:08:50;;;;;;;;;;;;;;;5.44;100.00;97369.25;5125225;28;20208;-75
2024/02/05 07:11:16;;;;;;;;;;;;;;;5.45;100.00;97368.25;5125250;28;19941;-73
2024/02/05 07:13:42;;;;;;;;;;;;;;;5.47;100.00;97378.50;5124911;28;19937;-75
2024/02/05 07:16:11;;;;;;;;;;;;;;;5.48;100.00;97373.13;5124955;28;19939;-73
2024/02/05 07:18:37;;;;;;;;;;;;;;;5.51;100.00;97372.00;5125711;28;19939;-72
2024/02/05 07:21:04;;;;;;;;;;;;;;;5.54;100.00;97371.66;5107694;28;20001;-72
2024/02/05 07:23:31;;;;;;;;;;;;;;;5.59;100.00;97372.00;5089907;28;20148;-71
2024/02/05 07:25:56;;;;;;;;;;;;;;;5.62;100.00;97376.84;5107628;28;19939;-71
2024/02/05 07:28:22;;;;;;;;;;;;;;;5.66;100.00;97372.16;5106916;28;19938;-72
2024/02/05 07:30:48;;;;;;;;;;;;;;;5.70;100.00;97368.25;5090515;28;19942;-71
2024/02/05 07:33:14;;;;;;;;;;;;;;;5.73;100.00;97375.72;5124890;28;19981;-71
2024/02/05 07:35:40;;;;;;;;;;;;;;;5.75;100.00;97375.56;5124834;28;19937;-71
2024/02/05 07:38:05;;;;;;;;;;;;;;;5.76;100.00;97377.19;5124842;28;19937;-71
2024/02/05 07:40:31;;;;;;;;;;;;;;;5.79;100.00;97374.25;5125607;28;19979;-68
2024/02/05 07:42:57;;;;;;;;;;;;;;;5.78;100.00;97376.06;5124659;28;19980;-67
2024/02/05 07:45:23;;;;;;;;;;;;;;;5.79;100.00;97366.44;5106716;28;20033;-68
2024/02/05 07:47:49;;;;;;;;;;;;;;;5.79;100.00;97358.63;5124795;28;19942;-68
2024/02/05 07:50:15;;;;;;;;;;;;;;;5.83;100.00;97378.16;5107315;28;19938;-68
2024/02/05 07:52:40;;;;;;;;;;;;;;;5.87;100.00;97375.06;5124572;28;19969;-68
2024/02/05 07:55:07;;;;;;;;;;;;;;;5.95;100.00;97373.47;5124022;28;19942;-71
2024/02/05 07:57:33;;;;;;;;;;;;;;;6.00;100.00;97371.16;5089612;28;19941;-71
2024/02/05 07:59:58;;;;;;;;;;;;;;;6.08;100.00;97371.94;5106368;28;19942;-71
2024/02/05 08:02:25;;;;;;;;;;;;;;;6.12;100.00;97364.63;5124508;28;19955;-71
2024/02/05 08:04:51;;;;;;;;;;;;;;;6.16;100.00;97376.34;5124578;28;19933;-71
2024/02/05 08:07:17;;;;;;;;;;;;;;;6.15;100.00;97374.69;5124560;28;20124;-71
2024/02/05 08:09:43;;;;;;;;;;;;;;;6.15;100.00;97369.50;5124467;28;19936;-72
2024/02/05 08:12:12;;;;;;;;;;;;;;;6.15;100.00;97379.09;5125334;28;19930;-71
2024/02/05 08:14:38;;;;;;;;;;;;;;;6.13;100.00;97368.84;5124505;28;19935;-73
2024/02/05 08:17:04;;;;;;;;;;;;;;;6.09;100.00;97370.19;5124456;28;19937;-75
2024/02/05 08:19:30;;;;;;;;;;;;;;;6.00;100.00;97377.19;5124449;28;19932;-74
2024/02/05 08:21:56;;;;;;;;;;;;;;;5.95;100.00;97373.47;5124858;28;19957;-75
2024/02/05 08:24:22;;;;;;;;;;;;;;;5.89;100.00;97372.28;5124369;28;19937;-74
2024/02/05 08:26:48;;;;;;;;;;;;;;;5.87;100.00;97366.44;5125885;28;19999;-73
2024/02/05 08:29:16;;;;;;;;;;;;;;;5.86;100.00;97365.63;5128420;28;20128;-74
2024/02/05 08:31:42;;;;;;;;;;;;;;;5.85;100.00;97371.81;5128392;28;19939;-68
2024/02/05 08:34:08;;;;;;;;;;;;;;;5.90;100.00;97374.75;5129115;28;20139;-68
2024/02/05 08:36:34;;;;;;;;;;;;;;;5.94;100.00;97374.41;5110207;28;20271;-68
2024/02/05 08:38:59;;;;;;;;;;;;;;;6.10;100.00;97379.59;5128227;28;19933;-68
2024/02/05 08:41:25;;;;;;;;;;;;;;;6.36;100.00;97373.34;5110033;28;19999;-68
2024/02/05 08:43:51;;;;;;;;;;;;;;;6.57;100.00;97375.38;5128627;28;19968;-69
2024/02/05 08:46:17;;;;;;;;;;;;;;;6.69;100.00;97376.63;5128085;28;20233;-68
2024/02/05 08:48:43;;;;;;;;;;;;;;;6.77;100.00;97374.00;5128059;28;19940;-68
2024/02/05 08:51:09;;;;;;;;;;;;;;;6.81;100.00;97369.25;5128541;28;19943;-73
2024/02/05 08:53:35;;;;;;;;;;;;;;;6.86;100.00;97372.16;5128064;28;19969;-71
2024/02/05 08:56:01;;;;;;;;;;;;;;;6.85;100.00;97368.75;5127899;28;19945;-71
2024/02/05 08:58:27;;;;;;;;;;;;;;;6.80;100.00;97354.59;5128394;28;20008;-71
2024/02/05 09:00:53;;;;;;;;;;;;;;;6.73;100.00;97369.28;5127841;28;19936;-71
2024/02/05 09:03:21;;;;;;;;;;;;;;;6.68;100.00;97362.81;5127682;28;20251;-71
2024/02/05 09:05:50;;;;;;;;;;;;;;;6.66;100.00;97369.97;5127732;28;19939;-71
2024/02/05 09:08:17;;;;;;;;;;;;;;;6.60;100.00;97368.03;5128443;28;19951;-72
2024/02/05 09:10:43;;;;;;;;;;;;;;;6.59;100.00;97366.41;5109437;28;19942;-73
2024/02/05 09:13:09;;;;;;;;;;;;;;;6.65;100.00;97370.94;5127587;28;19929;-74
2024/02/05 09:15:35;;;;;;;;;;;;;;;6.70;100.00;97373.88;5127557;28;19955;-74
2024/02/05 09:18:01;;;;;;;;;;;;;;;6.77;100.00;97375.78;5127500;28;19934;-74
2024/02/05 09:20:27;;;;;;;;;;;;;;;6.92;100.00;97366.25;5127485;28;19958;-73
2024/02/05 09:22:53;;;;;;;;;;;;;;;7.37;100.00;97367.28;5109861;28;19960;-74
2024/02/05 09:25:19;;;;;;;;;;;;;;;7.88;100.00;97348.41;5128136;28;19936;-74
2024/02/05 09:27:45;;;;;;;;;;;;;;;8.45;100.00;97332.13;5127295;28;20128;-71
2024/02/05 09:30:11;;;;;;;;;;;;;;;8.60;100.00;97310.38;5109940;28;20249;-71
2024/02/05 09:32:37;;;;;;;;;;;;;;;8.63;100.00;97313.44;5127222;28;19932;-71
2024/02/05 09:35:03;;;;;;;;;;;;;;;8.41;100.00;97294.25;5127735;28;19944;-71
2024/02/05 09:37:29;;;;;;;;;;;;;;;8.27;100.00;97318.59;5126713;28;20104;-71
2024/02/05 09:39:55;;;;;;;;;;;;;;;8.19;100.00;97335.19;5127091;28;19942;-71
2024/02/05 09:42:21;;;;;;;;;;;;;;;8.13;100.00;97326.25;5126996;28;19949;-72
2024/02/05 09:44:49;;;;;;;;;;;;;;;8.05;100.00;97330.75;5126950;28;19967;-69
2024/02/05 09:47:18;;;;;;;;;;;;;;;7.90;100.00;97336.78;5126990;28;19933;-74
2024/02/05 09:49:46;;;;;;;;;;;;;;;7.81;100.00;97337.03;5126884;28;20128;-71
2024/02/05 09:52:11;;;;;;;;;;;;;;;7.69;100.00;97334.06;5126661;28;19938;-73
2024/02/05 09:54:40;;;;;;;;;;;;;;;7.55;100.00;97345.28;5127602;28;20133;-71
2024/02/05 09:57:10;;;;;;;;;;;;;;;7.49;100.00;97355.41;5126754;28;19939;-72
2024/02/05 09:59:36;;;;;;;;;;;;;;;7.56;100.00;97357.31;5126931;28;19936;-71
2024/02/05 10:02:06;;;;;;;;;;;;;;;8.12;100.00;97347.34;5126872;28;20220;-71
2024/02/05 10:04:38;;;;;;;;;;;;;;;8.64;100.00;97341.19;5127217;28;19981;-73
2024/02/05 10:07:06;;;;;;;;;;;;;;;9.03;100.00;97313.03;5127172;28;19956;-68
2024/02/05 10:09:32;;;;;;;;;;;;;;;9.09;100.00;97320.13;5126463;28;20141;-68
2024/02/05 10:12:00;;;;;;;;;;;;;;;9.36;100.00;97287.16;5127263;28;19939;-69
2024/02/05 10:14:26;;;;;;;;;;;;;;;9.82;100.00;97280.66;5126351;28;19935;-68
2024/02/05 10:16:52;;;;;;;;;;;;;;;10.21;100.00;97253.03;5126346;28;19975;-69
2024/02/05 10:19:18;;;;;;;;;;;;;;;10.56;100.00;97272.13;5125595;28;20220;-69
2024/02/05 10:21:44;;;;;;;;;;;;;;;10.68;99.36;97223.34;5126271;28;19941;-74
2024/02/05 10:24:15;;;;;;;;;;;;;;;10.74;100.00;97251.41;5126170;28;19955;-74
2024/02/05 10:26:41;;;;;;;;;;;;;;;11.05;100.00;97246.63;5126704;28;19973;-74
2024/02/05 10:29:08;;;;;;;;;;;;;;;11.29;93.90;97197.94;5108753;28;19957;-74
2024/02/05 10:31:42;;;;;;;;;;;;;;;11.49;97.89;97218.94;5126568;28;20112;-75
2024/02/05 10:34:12;;;;;;;;;;;;;;;11.45;90.65;97175.72;5126589;28;19958;-75
2024/02/05 10:36:38;;;;;;;;;;;;;;;11.62;93.21;97186.56;5125955;28;19958;-75
2024/02/05 10:39:05;;;;;;;;;;;;;;;11.75;91.00;97170.75;5125856;28;20219;-75
2024/02/05 10:41:31;;;;;;;;;;;;;;;11.98;95.61;97188.72;5125873;28;19944;-71
2024/02/05 10:43:57;;;;;;;;;;;;;;;12.17;93.40;97181.75;5125782;28;20167;-72
2024/02/05 10:46:32;;;;;;;;;;;;;;;12.34;91.54;97171.56;5108437;28;19966;-72
2024/02/05 10:49:00;;;;;;;;;;;;;;;12.37;86.88;97139.56;5125790;28;19932;-72
2024/02/05 10:51:26;;;;;;;;;;;;;;;12.51;92.16;97169.22;5125639;28;19955;-73
2024/02/05 10:53:52;;;;;;;;;;;;;;;12.66;88.42;97145.25;5125620;28;20152;-72
2024/02/05 10:56:18;;;;;;;;;;;;;;;12.64;92.09;97155.16;5108216;28;20148;-72
2024/02/05 10:58:44;;;;;;;;;;;;;;;12.60;85.28;97112.72;5125505;28;20141;-73
2024/02/05 11:01:10;;;;;;;;;;;;;;;12.68;82.63;97096.66;5107444;28;19932;-74
2024/02/05 11:03:37;;;;;;;;;;;;;;;12.80;84.00;97102.81;5108011;28;19957;-74
2024/02/05 11:06:05;;;;;;;;;;;;;;;12.83;84.08;97112.13;5107330;28;19976;-74
2024/02/05 11:08:34;;;;;;;;;;;;;;;12.84;87.08;97108.47;5125236;28;19954;-74
2024/02/05 11:11:06;;;;;;;;;;;;;;;12.99;85.09;97095.75;5107274;28;19939;-74
2024/02/05 11:13:34;;;;;;;;;;;;;;;13.12;88.61;97115.09;5125829;28;19928;-74
2024/02/05 11:16:01;;;;;;;;;;;;;;;13.28;83.93;97067.13;5125168;28;19951;-73
2024/02/05 11:18:30;;;;;;;;;;;;;;;13.33;80.20;97062.03;5124321;28;19944;-73
2024/02/05 11:20:57;;;;;;;;;;;;;;;13.27;82.19;97057.63;5125126;28;19943;-72
2024/02/05 11:23:24;;;;;;;;;;;;;;;13.20;80.95;97059.50;5106884;28;19958;-72
2024/02/05 11:25:51;;;;;;;;;;;;;;;13.11;84.41;97074.00;5124980;28;19948;-72
2024/02/05 11:28:17;;;;;;;;;;;;;;;13.06;85.37;97079.09;5125014;28;20131;-73
2024/02/05 11:30:44;;;;;;;;;;;;;;;13.26;82.65;97060.47;5124894;28;20261;-72
2024/02/05 11:33:11;;;;;;;;;;;;;;;13.36;82.42;97039.72;5125435;28;19938;-72
2024/02/05 11:35:36;;;;;;;;;;;;;;;13.37;88.01;97086.88;5124943;28;20209;-71
2024/02/05 11:38:06;;;;;;;;;;;;;;;13.29;82.60;97046.88;5125464;28;19973;-71
2024/02/05 11:40:32;;;;;;;;;;;;;;;12.94;80.76;97034.25;5107081;28;20218;-72
2024/02/05 11:43:02;;;;;;;;;;;;;;;12.66;84.42;97066.28;5124789;28;19948;-72
2024/02/05 11:45:28;;;;;;;;;;;;;;;12.75;82.52;97057.13;5124749;28;19939;-72
2024/02/05 11:47:55;;;;;;;;;;;;;;;12.93;85.34;97058.97;5124700;28;19945;-72
2024/02/05 11:50:21;;;;;;;;;;;;;;;13.08;82.18;97030.47;5124679;28;19940;-72
2024/02/05 11:52:46;;;;;;;;;;;;;;;12.92;82.92;97037.09;5106979;28;20043;-72
2024/02/05 11:55:15;;;;;;;;;;;;;;;12.70;84.80;97038.53;5106483;28;19946;-71
2024/02/05 11:57:43;;;;;;;;;;;;;;;12.47;81.95;97029.41;5124663;28;19941;-68
2024/02/05 12:00:10;;;;;;;;;;;;;;;12.29;83.56;97029.38;5125655;28;19944;-69
2024/02/05 12:02:37;;;;;;;;;;;;;;;12.02;85.33;97040.06;5131337;28;20254;-69
2024/02/05 12:05:05;;;;;;;;;;;;;;;11.92;85.17;97037.09;5131457;28;19941;-68
2024/02/05 12:07:31;;;;;;;;;;;;;;;12.01;88.16;97046.34;5131320;28;19933;-70
2024/02/05 12:09:57;;;;;;;;;;;;;;;12.08;87.26;97041.84;5131326;28;19947;-69
2024/02/05 12:12:23;;;;;;;;;;;;;;;12.00;85.06;97018.44;5131411;28;19934;-74
2024/02/05 12:14:49;;;;;;;;;;;;;;;12.10;87.30;97031.13;5131898;28;19946;-74
2024/02/05 12:17:17;;;;;;;;;;;;;;;12.17;83.58;97014.25;5131317;28;20138;-73
2024/02/05 12:19:43;;;;;;;;;;;;;;;12.25;83.62;97015.84;5131264;28;19934;-74
2024/02/05 12:22:09;;;;;;;;;;;;;;;12.24;83.00;96993.19;5131804;28;19944;-74
2024/02/05 12:24:35;;;;;;;;;;;;;;;12.24;83.89;96992.38;5130194;28;19962;-74
2024/02/05 12:27:01;;;;;;;;;;;;;;;12.30;83.08;96984.44;5131244;28;20159;-73
2024/02/05 12:29:27;;;;;;;;;;;;;;;12.28;84.36;96994.34;5131696;28;19934;-75
2024/02/05 12:32:11;;;;;;;;;;;;;;;12.31;87.21;96993.94;5131219;28;19935;-74
2024/02/05 12:34:36;;;;;;;;;;;;;;;12.24;82.19;96972.16;5096838;28;19941;-74
2024/02/05 12:37:09;;;;;;;;;;;;;;;12.22;83.67;96976.00;5112877;28;20211;-74
2024/02/05 12:39:35;;;;;;;;;;;;;;;12.19;85.05;96980.66;5131675;28;20246;-73
2024/02/05 12:42:01;;;;;;;;;;;;;;;12.22;84.22;96968.13;5131656;28;19936;-73